sensor_id;sensor_type;location;lat;lon;timestamp;pressure;altitude;pressure_sealevel;temperature;humidity
49529;BME280;35423;37.320;-121.762;2023-03-03T00:00:01;100190.89;;;37.57;3.78
49529;BME280;35423;37.320;-121.762;2023-03-03T00:02:26;100192.32;;;37.52;3.82
49529;BME280;35423;37.320;-121.762;2023-03-03T00:04:53;100192.25;;;37.21;3.89
49529;BME280;35423;37.320;-121.762;2023-03-03T00:07:20;100192.58;;;37.06;3.87
49529;BME280;35423;37.320;-121.762;2023-03-03T00:09:51;100191.43;;;37.19;4.05
49529;BME280;35423;37.320;-121.762;2023-03-03T00:12:23;100191.00;;;36.85;3.83
49529;BME280;35423;37.320;-121.762;2023-03-03T00:14:41;100183.36;;;36.75;3.96
49529;BME280;35423;37.320;-121.762;2023-03-03T00:17:18;100186.16;;;36.58;4.05
49529;BME280;35423;37.320;-121.762;2023-03-03T00:19:38;100194.73;;;36.43;4.13
49529;BME280;35423;37.320;-121.762;2023-03-03T00:22:06;100197.06;;;36.05;4.10
49529;BME280;35423;37.320;-121.762;2023-03-03T00:24:35;100192.05;;;35.78;4.32
49529;BME280;35423;37.320;-121.762;2023-03-03T00:26:55;100191.20;;;35.89;4.31
49529;BME280;35423;37.320;-121.762;2023-03-03T00:31:47;100195.30;;;35.69;4.37
49529;BME280;35423;37.320;-121.762;2023-03-03T00:34:23;100194.71;;;35.22;4.59
49529;BME280;35423;37.320;-121.762;2023-03-03T00:36:45;100193.56;;;35.24;4.62
49529;BME280;35423;37.320;-121.762;2023-03-03T00:39:20;100191.79;;;35.05;4.65
49529;BME280;35423;37.320;-121.762;2023-03-03T00:41:39;100194.96;;;34.83;4.67
49529;BME280;35423;37.320;-121.762;2023-03-03T00:46:30;100200.22;;;33.62;4.85
49529;BME280;35423;37.320;-121.762;2023-03-03T00:48:58;100198.72;;;33.03;5.18
49529;BME280;35423;37.320;-121.762;2023-03-03T00:51:30;100195.55;;;33.27;5.43
49529;BME280;35423;37.320;-121.762;2023-03-03T00:53:56;100193.58;;;32.59;5.61
49529;BME280;35423;37.320;-121.762;2023-03-03T00:56:26;100198.97;;;32.40;5.94
49529;BME280;35423;37.320;-121.762;2023-03-03T00:58:52;100202.40;;;32.28;6.20
49529;BME280;35423;37.320;-121.762;2023-03-03T01:01:20;100205.83;;;31.59;6.81
49529;BME280;35423;37.320;-121.762;2023-03-03T01:03:46;100210.63;;;31.45;7.52
49529;BME280;35423;37.320;-121.762;2023-03-03T01:06:13;100219.59;;;31.11;8.08
49529;BME280;35423;37.320;-121.762;2023-03-03T01:08:41;100224.39;;;30.97;8.52
49529;BME280;35423;37.320;-121.762;2023-03-03T01:11:11;100228.18;;;30.85;8.47
49529;BME280;35423;37.320;-121.762;2023-03-03T01:13:34;100226.88;;;30.39;8.76
49529;BME280;35423;37.320;-121.762;2023-03-03T01:16:03;100229.52;;;30.25;9.08
49529;BME280;35423;37.320;-121.762;2023-03-03T01:18:28;100230.22;;;29.81;9.47
49529;BME280;35423;37.320;-121.762;2023-03-03T01:20:56;100226.63;;;29.38;9.89
49529;BME280;35423;37.320;-121.762;2023-03-03T01:23:31;100226.22;;;29.26;10.21
49529;BME280;35423;37.320;-121.762;2023-03-03T01:25:57;100225.19;;;28.98;10.51
49529;BME280;35423;37.320;-121.762;2023-03-03T01:28:26;100233.03;;;28.55;10.72
49529;BME280;35423;37.320;-121.762;2023-03-03T01:31:01;100234.93;;;28.52;11.06
49529;BME280;35423;37.320;-121.762;2023-03-03T01:33:22;100236.83;;;28.24;11.31
49529;BME280;35423;37.320;-121.762;2023-03-03T01:35:47;100238.40;;;28.23;11.61
49529;BME280;35423;37.320;-121.762;2023-03-03T01:38:13;100238.02;;;28.31;11.81
49529;BME280;35423;37.320;-121.762;2023-03-03T01:40:39;100242.50;;;27.88;12.07
49529;BME280;35423;37.320;-121.762;2023-03-03T01:43:06;100247.58;;;27.92;12.24
49529;BME280;35423;37.320;-121.762;2023-03-03T01:45:52;100245.81;;;27.68;12.50
49529;BME280;35423;37.320;-121.762;2023-03-03T01:48:00;100248.18;;;27.71;12.74
49529;BME280;35423;37.320;-121.762;2023-03-03T01:50:29;100253.27;;;27.54;12.91
49529;BME280;35423;37.320;-121.762;2023-03-03T01:52:51;100260.73;;;27.21;13.20
49529;BME280;35423;37.320;-121.762;2023-03-03T01:55:19;100264.69;;;26.93;13.42
49529;BME280;35423;37.320;-121.762;2023-03-03T01:57:50;100268.29;;;27.00;13.61
49529;BME280;35423;37.320;-121.762;2023-03-03T02:00:13;100278.08;;;26.49;13.87
49529;BME280;35423;37.320;-121.762;2023-03-03T02:02:41;100285.23;;;26.55;14.08
49529;BME280;35423;37.320;-121.762;2023-03-03T02:05:08;100285.84;;;26.37;14.21
49529;BME280;35423;37.320;-121.762;2023-03-03T02:07:50;100294.69;;;26.58;14.43
49529;BME280;35423;37.320;-121.762;2023-03-03T02:10:17;100301.02;;;26.01;14.49
49529;BME280;35423;37.320;-121.762;2023-03-03T02:12:43;100306.50;;;25.87;14.59
49529;BME280;35423;37.320;-121.762;2023-03-03T02:17:34;100320.44;;;25.54;14.92
49529;BME280;35423;37.320;-121.762;2023-03-03T02:20:08;100322.20;;;25.39;14.78
49529;BME280;35423;37.320;-121.762;2023-03-03T02:22:43;100328.08;;;25.38;14.84
49529;BME280;35423;37.320;-121.762;2023-03-03T02:25:05;100328.60;;;25.41;14.95
49529;BME280;35423;37.320;-121.762;2023-03-03T02:27:33;100334.48;;;25.27;15.03
49529;BME280;35423;37.320;-121.762;2023-03-03T02:32:27;100348.98;;;25.16;15.17
49529;BME280;35423;37.320;-121.762;2023-03-03T02:34:54;100350.66;;;25.06;15.13
49529;BME280;35423;37.320;-121.762;2023-03-03T02:37:21;100357.67;;;24.78;15.29
49529;BME280;35423;37.320;-121.762;2023-03-03T02:39:48;100366.16;;;24.62;15.37
49529;BME280;35423;37.320;-121.762;2023-03-03T02:42:19;100377.52;;;24.52;15.45
49529;BME280;35423;37.320;-121.762;2023-03-03T02:44:42;100384.69;;;24.53;15.54
49529;BME280;35423;37.320;-121.762;2023-03-03T02:47:09;100396.76;;;24.38;15.65
49529;BME280;35423;37.320;-121.762;2023-03-03T02:49:35;100403.93;;;24.19;15.77
49529;BME280;35423;37.320;-121.762;2023-03-03T02:52:16;100398.13;;;23.95;16.00
49529;BME280;35423;37.320;-121.762;2023-03-03T02:54:43;100399.51;;;23.76;16.13
49529;BME280;35423;37.320;-121.762;2023-03-03T02:57:14;100412.46;;;23.56;16.15
49529;BME280;35423;37.320;-121.762;2023-03-03T02:59:46;100414.14;;;23.87;16.21
49529;BME280;35423;37.320;-121.762;2023-03-03T03:02:08;100414.66;;;23.50;16.29
49529;BME280;35423;37.320;-121.762;2023-03-03T03:04:34;100423.60;;;23.39;16.40
49529;BME280;35423;37.320;-121.762;2023-03-03T03:07:01;100426.36;;;23.48;16.47
49529;BME280;35423;37.320;-121.762;2023-03-03T03:09:28;100432.92;;;23.20;16.55
49529;BME280;35423;37.320;-121.762;2023-03-03T03:11:54;100438.23;;;23.37;16.62
49529;BME280;35423;37.320;-121.762;2023-03-03T03:14:25;100439.57;;;23.27;16.74
49529;BME280;35423;37.320;-121.762;2023-03-03T03:16:54;100440.09;;;23.47;16.68
49529;BME280;35423;37.320;-121.762;2023-03-03T03:19:29;100447.75;;;23.16;16.67
49529;BME280;35423;37.320;-121.762;2023-03-03T03:22:17;100462.39;;;23.55;16.82
49529;BME280;35423;37.320;-121.762;2023-03-03T03:24:45;100465.66;;;22.94;16.95
49529;BME280;35423;37.320;-121.762;2023-03-03T03:27:10;100469.66;;;22.87;16.99
49529;BME280;35423;37.320;-121.762;2023-03-03T03:29:37;100464.72;;;22.78;17.12
49529;BME280;35423;37.320;-121.762;2023-03-03T03:32:07;100461.15;;;22.64;17.27
49529;BME280;35423;37.320;-121.762;2023-03-03T03:34:33;100456.39;;;22.76;17.33
49529;BME280;35423;37.320;-121.762;2023-03-03T03:37:04;100451.90;;;22.64;17.49
49529;BME280;35423;37.320;-121.762;2023-03-03T03:39:29;100440.80;;;22.54;17.61
49529;BME280;35423;37.320;-121.762;2023-03-03T03:41:56;100430.16;;;22.20;17.75
49529;BME280;35423;37.320;-121.762;2023-03-03T03:44:23;100418.30;;;22.12;17.84
49529;BME280;35423;37.320;-121.762;2023-03-03T03:46:52;100412.97;;;22.26;17.96
49529;BME280;35423;37.320;-121.762;2023-03-03T03:49:17;100406.39;;;22.21;18.09
49529;BME280;35423;37.320;-121.762;2023-03-03T03:51:49;100402.76;;;22.15;18.09
49529;BME280;35423;37.320;-121.762;2023-03-03T03:54:26;100408.95;;;22.31;18.13
49529;BME280;35423;37.320;-121.762;2023-03-03T03:56:50;100413.07;;;22.18;18.19
49529;BME280;35423;37.320;-121.762;2023-03-03T03:59:19;100419.44;;;22.09;18.29
49529;BME280;35423;37.320;-121.762;2023-03-03T04:01:54;100422.61;;;21.99;18.35
49529;BME280;35423;37.320;-121.762;2023-03-03T04:04:20;100423.36;;;21.91;18.43
49529;BME280;35423;37.320;-121.762;2023-03-03T04:06:46;100425.51;;;21.81;18.46
49529;BME280;35423;37.320;-121.762;2023-03-03T04:09:19;100422.96;;;21.64;18.45
49529;BME280;35423;37.320;-121.762;2023-03-03T04:11:46;100420.21;;;21.48;18.42
49529;BME280;35423;37.320;-121.762;2023-03-03T04:14:13;100416.38;;;21.32;18.48
49529;BME280;35423;37.320;-121.762;2023-03-03T04:16:45;100410.51;;;21.16;18.56
49529;BME280;35423;37.320;-121.762;2023-03-03T04:19:10;100403.06;;;21.02;18.57
49529;BME280;35423;37.320;-121.762;2023-03-03T04:21:35;100396.00;;;21.13;18.53
49529;BME280;35423;37.320;-121.762;2023-03-03T04:24:01;100391.90;;;21.29;18.61
49529;BME280;35423;37.320;-121.762;2023-03-03T04:26:28;100386.70;;;20.81;18.64
49529;BME280;35423;37.320;-121.762;2023-03-03T04:28:53;100379.57;;;20.76;18.60
49529;BME280;35423;37.320;-121.762;2023-03-03T04:31:21;100380.71;;;20.92;18.60
49529;BME280;35423;37.320;-121.762;2023-03-03T04:33:48;100384.98;;;21.05;18.70
49529;BME280;35423;37.320;-121.762;2023-03-03T04:36:13;100381.51;;;20.74;18.77
49529;BME280;35423;37.320;-121.762;2023-03-03T04:38:39;100383.97;;;20.89;18.86
49529;BME280;35423;37.320;-121.762;2023-03-03T04:41:06;100390.16;;;20.52;18.98
49529;BME280;35423;37.320;-121.762;2023-03-03T04:43:34;100395.70;;;20.54;19.14
49529;BME280;35423;37.320;-121.762;2023-03-03T04:45:59;100411.36;;;20.38;19.29
49529;BME280;35423;37.320;-121.762;2023-03-03T04:48:25;100422.03;;;20.26;19.47
49529;BME280;35423;37.320;-121.762;2023-03-03T04:50:51;100425.33;;;20.18;19.49
49529;BME280;35423;37.320;-121.762;2023-03-03T04:53:21;100428.54;;;20.12;19.45
49529;BME280;35423;37.320;-121.762;2023-03-03T04:55:49;100429.98;;;20.07;19.45
49529;BME280;35423;37.320;-121.762;2023-03-03T04:58:12;100423.57;;;20.26;19.17
49529;BME280;35423;37.320;-121.762;2023-03-03T05:00:40;100424.47;;;20.20;18.85
49529;BME280;35423;37.320;-121.762;2023-03-03T05:03:06;100429.47;;;20.32;18.89
49529;BME280;35423;37.320;-121.762;2023-03-03T05:05:33;100422.85;;;20.22;19.01
49529;BME280;35423;37.320;-121.762;2023-03-03T05:07:59;100424.09;;;20.15;19.08
49529;BME280;35423;37.320;-121.762;2023-03-03T05:10:29;100426.70;;;19.85;19.17
49529;BME280;35423;37.320;-121.762;2023-03-03T05:12:56;100429.91;;;19.95;19.34
49529;BME280;35423;37.320;-121.762;2023-03-03T05:15:33;100437.92;;;19.84;19.46
49529;BME280;35423;37.320;-121.762;2023-03-03T05:17:56;100433.52;;;19.76;19.61
49529;BME280;35423;37.320;-121.762;2023-03-03T05:20:20;100429.46;;;19.46;19.81
49529;BME280;35423;37.320;-121.762;2023-03-03T05:22:46;100426.55;;;19.45;20.06
49529;BME280;35423;37.320;-121.762;2023-03-03T05:25:14;100425.84;;;19.34;20.21
49529;BME280;35423;37.320;-121.762;2023-03-03T05:27:41;100429.75;;;19.20;20.44
49529;BME280;35423;37.320;-121.762;2023-03-03T05:30:19;100438.12;;;19.08;20.46
49529;BME280;35423;37.320;-121.762;2023-03-03T05:32:46;100441.53;;;19.02;20.50
49529;BME280;35423;37.320;-121.762;2023-03-03T05:35:14;100440.96;;;18.95;20.59
49529;BME280;35423;37.320;-121.762;2023-03-03T05:37:40;100442.46;;;18.94;20.52
49529;BME280;35423;37.320;-121.762;2023-03-03T05:40:12;100440.89;;;19.39;20.51
49529;BME280;35423;37.320;-121.762;2023-03-03T05:42:37;100440.43;;;18.80;20.43
49529;BME280;35423;37.320;-121.762;2023-03-03T05:45:09;100439.87;;;19.03;20.23
49529;BME280;35423;37.320;-121.762;2023-03-03T05:47:35;100435.57;;;18.67;20.10
49529;BME280;35423;37.320;-121.762;2023-03-03T05:50:04;100431.13;;;18.58;20.08
49529;BME280;35423;37.320;-121.762;2023-03-03T05:52:29;100431.22;;;19.00;20.18
49529;BME280;35423;37.320;-121.762;2023-03-03T05:54:56;100422.64;;;18.95;20.07
49529;BME280;35423;37.320;-121.762;2023-03-03T05:57:23;100413.73;;;18.65;19.96
49529;BME280;35423;37.320;-121.762;2023-03-03T05:59:56;100412.61;;;18.80;19.93
49529;BME280;35423;37.320;-121.762;2023-03-03T06:02:22;100408.95;;;18.48;19.89
49529;BME280;35423;37.320;-121.762;2023-03-03T06:04:49;100405.03;;;18.62;19.87
49529;BME280;35423;37.320;-121.762;2023-03-03T06:07:15;100406.72;;;18.57;19.85
49529;BME280;35423;37.320;-121.762;2023-03-03T06:09:45;100411.97;;;18.48;19.92
49529;BME280;35423;37.320;-121.762;2023-03-03T06:12:17;100420.10;;;18.39;19.99
49529;BME280;35423;37.320;-121.762;2023-03-03T06:14:42;100422.94;;;18.32;20.15
49529;BME280;35423;37.320;-121.762;2023-03-03T06:17:16;100424.02;;;18.27;20.14
49529;BME280;35423;37.320;-121.762;2023-03-03T06:19:43;100437.24;;;18.21;20.16
49529;BME280;35423;37.320;-121.762;2023-03-03T06:22:09;100446.20;;;18.36;20.30
49529;BME280;35423;37.320;-121.762;2023-03-03T06:24:34;100443.54;;;18.08;20.44
49529;BME280;35423;37.320;-121.762;2023-03-03T06:27:03;100443.81;;;18.06;20.47
49529;BME280;35423;37.320;-121.762;2023-03-03T06:29:31;100446.93;;;17.98;20.43
49529;BME280;35423;37.320;-121.762;2023-03-03T06:32:02;100448.44;;;17.93;20.36
49529;BME280;35423;37.320;-121.762;2023-03-03T06:34:29;100449.36;;;18.10;20.33
49529;BME280;35423;37.320;-121.762;2023-03-03T06:36:55;100452.47;;;18.05;20.32
49529;BME280;35423;37.320;-121.762;2023-03-03T06:39:23;100451.06;;;17.75;20.34
49529;BME280;35423;37.320;-121.762;2023-03-03T06:41:51;100435.59;;;17.82;20.46
49529;BME280;35423;37.320;-121.762;2023-03-03T06:44:17;100429.17;;;17.69;20.62
49529;BME280;35423;37.320;-121.762;2023-03-03T06:46:54;100436.25;;;17.40;20.74
49529;BME280;35423;37.320;-121.762;2023-03-03T06:49:09;100441.82;;;17.31;20.87
49529;BME280;35423;37.320;-121.762;2023-03-03T06:51:36;100440.15;;;17.49;20.97
49529;BME280;35423;37.320;-121.762;2023-03-03T06:54:05;100442.14;;;17.38;21.12
49529;BME280;35423;37.320;-121.762;2023-03-03T06:56:27;100447.80;;;17.32;21.33
49529;BME280;35423;37.320;-121.762;2023-03-03T06:59:00;100454.76;;;17.55;21.35
49529;BME280;35423;37.320;-121.762;2023-03-03T07:01:21;100452.15;;;17.48;21.31
49529;BME280;35423;37.320;-121.762;2023-03-03T07:03:46;100449.33;;;17.42;21.32
49529;BME280;35423;37.320;-121.762;2023-03-03T07:06:20;100445.42;;;17.09;21.42
49529;BME280;35423;37.320;-121.762;2023-03-03T07:08:43;100437.15;;;17.30;21.50
49529;BME280;35423;37.320;-121.762;2023-03-03T07:11:11;100431.16;;;16.94;21.63
49529;BME280;35423;37.320;-121.762;2023-03-03T07:13:33;100422.63;;;16.88;21.78
49529;BME280;35423;37.320;-121.762;2023-03-03T07:16:09;100415.33;;;16.82;21.84
49529;BME280;35423;37.320;-121.762;2023-03-03T07:18:36;100410.39;;;17.00;21.94
49529;BME280;35423;37.320;-121.762;2023-03-03T07:20:52;100415.43;;;16.93;21.91
49529;BME280;35423;37.320;-121.762;2023-03-03T07:23:23;100415.65;;;17.28;22.05
49529;BME280;35423;37.320;-121.762;2023-03-03T07:25:46;100408.60;;;16.80;22.00
49529;BME280;35423;37.320;-121.762;2023-03-03T07:28:18;100404.43;;;16.76;21.99
49529;BME280;35423;37.320;-121.762;2023-03-03T07:30:38;100403.43;;;16.91;22.01
49529;BME280;35423;37.320;-121.762;2023-03-03T07:33:07;100402.76;;;16.80;22.10
49529;BME280;35423;37.320;-121.762;2023-03-03T07:35:37;100416.36;;;16.71;22.18
49529;BME280;35423;37.320;-121.762;2023-03-03T07:37:59;100423.04;;;16.66;22.21
49529;BME280;35423;37.320;-121.762;2023-03-03T07:40:35;100422.45;;;16.39;22.24
49529;BME280;35423;37.320;-121.762;2023-03-03T07:42:52;100421.18;;;16.35;22.23
49529;BME280;35423;37.320;-121.762;2023-03-03T07:45:27;100418.73;;;16.48;22.35
49529;BME280;35423;37.320;-121.762;2023-03-03T07:47:44;100412.33;;;16.43;22.46
49529;BME280;35423;37.320;-121.762;2023-03-03T07:50:15;100409.08;;;16.56;22.54
49529;BME280;35423;37.320;-121.762;2023-03-03T07:52:46;100413.15;;;16.29;22.54
49529;BME280;35423;37.320;-121.762;2023-03-03T07:57:38;100407.02;;;16.32;22.71
49529;BME280;35423;37.320;-121.762;2023-03-03T08:02:39;100408.78;;;16.05;22.72
49529;BME280;35423;37.320;-121.762;2023-03-03T08:04:58;100413.32;;;16.18;22.84
49529;BME280;35423;37.320;-121.762;2023-03-03T08:07:27;100419.04;;;16.11;22.92
49529;BME280;35423;37.320;-121.762;2023-03-03T08:09:56;100425.63;;;16.04;23.00
49529;BME280;35423;37.320;-121.762;2023-03-03T08:12:30;100424.50;;;16.00;23.01
49529;BME280;35423;37.320;-121.762;2023-03-03T08:17:21;100425.20;;;15.79;23.27
49529;BME280;35423;37.320;-121.762;2023-03-03T08:19:46;100432.31;;;15.97;23.38
49529;BME280;35423;37.320;-121.762;2023-03-03T08:22:15;100434.72;;;15.59;23.49
49529;BME280;35423;37.320;-121.762;2023-03-03T08:24:45;100442.51;;;15.54;23.50
49529;BME280;35423;37.320;-121.762;2023-03-03T08:27:10;100451.45;;;15.74;23.64
49529;BME280;35423;37.320;-121.762;2023-03-03T08:29:36;100457.57;;;15.70;23.71
49529;BME280;35423;37.320;-121.762;2023-03-03T08:32:05;100456.14;;;15.35;23.85
49529;BME280;35423;37.320;-121.762;2023-03-03T08:34:30;100455.46;;;15.80;23.99
49529;BME280;35423;37.320;-121.762;2023-03-03T08:36:56;100457.04;;;15.51;24.11
49529;BME280;35423;37.320;-121.762;2023-03-03T08:39:22;100450.58;;;15.14;24.22
49529;BME280;35423;37.320;-121.762;2023-03-03T08:41:50;100444.55;;;15.28;24.37
49529;BME280;35423;37.320;-121.762;2023-03-03T08:44:13;100441.80;;;15.22;24.44
49529;BME280;35423;37.320;-121.762;2023-03-03T08:46:48;100442.36;;;15.36;24.50
49529;BME280;35423;37.320;-121.762;2023-03-03T08:49:12;100442.89;;;15.09;24.61
49529;BME280;35423;37.320;-121.762;2023-03-03T08:51:39;100436.44;;;15.26;24.72
49529;BME280;35423;37.320;-121.762;2023-03-03T08:54:12;100432.06;;;15.21;24.90
49529;BME280;35423;37.320;-121.762;2023-03-03T08:56:38;100430.34;;;15.13;24.99
49529;BME280;35423;37.320;-121.762;2023-03-03T08:59:04;100429.67;;;15.08;24.99
49529;BME280;35423;37.320;-121.762;2023-03-03T09:01:31;100429.63;;;15.07;25.00
49529;BME280;35423;37.320;-121.762;2023-03-03T09:04:02;100434.22;;;15.03;25.12
49529;BME280;35423;37.320;-121.762;2023-03-03T09:06:30;100439.89;;;14.98;25.10
49529;BME280;35423;37.320;-121.762;2023-03-03T09:08:56;100442.17;;;14.99;25.09
49529;BME280;35423;37.320;-121.762;2023-03-03T09:11:24;100443.11;;;14.94;25.15
49529;BME280;35423;37.320;-121.762;2023-03-03T09:13:49;100443.57;;;14.91;25.20
49529;BME280;35423;37.320;-121.762;2023-03-03T09:16:16;100447.86;;;14.88;25.20
49529;BME280;35423;37.320;-121.762;2023-03-03T09:18:43;100446.91;;;14.82;25.20
49529;BME280;35423;37.320;-121.762;2023-03-03T09:21:16;100446.10;;;14.79;25.24
49529;BME280;35423;37.320;-121.762;2023-03-03T09:23:39;100450.82;;;14.75;25.26
49529;BME280;35423;37.320;-121.762;2023-03-03T09:28:31;100451.45;;;14.61;25.42
49529;BME280;35423;37.320;-121.762;2023-03-03T09:30:58;100449.14;;;14.53;25.51
49529;BME280;35423;37.320;-121.762;2023-03-03T09:33:25;100442.81;;;14.72;25.55
49529;BME280;35423;37.320;-121.762;2023-03-03T09:35:46;100441.79;;;14.37;25.63
49529;BME280;35423;37.320;-121.762;2023-03-03T09:38:26;100433.18;;;14.80;25.64
49529;BME280;35423;37.320;-121.762;2023-03-03T09:43:21;100434.59;;;14.42;25.79
49529;BME280;35423;37.320;-121.762;2023-03-03T09:45:52;100435.63;;;14.59;25.88
49529;BME280;35423;37.320;-121.762;2023-03-03T09:48:28;100429.51;;;14.58;25.93
49529;BME280;35423;37.320;-121.762;2023-03-03T09:50:51;100424.72;;;14.32;25.99
49529;BME280;35423;37.320;-121.762;2023-03-03T09:53:21;100422.26;;;14.29;26.05
49529;BME280;35423;37.320;-121.762;2023-03-03T09:55:42;100421.02;;;14.45;26.13
49529;BME280;35423;37.320;-121.762;2023-03-03T09:58:15;100413.59;;;13.93;26.17
49529;BME280;35423;37.320;-121.762;2023-03-03T10:00:39;100408.67;;;14.41;26.25
49529;BME280;35423;37.320;-121.762;2023-03-03T10:03:13;100400.41;;;14.34;26.37
49529;BME280;35423;37.320;-121.762;2023-03-03T10:05:25;100393.10;;;14.30;26.40
49529;BME280;35423;37.320;-121.762;2023-03-03T10:07:52;100380.48;;;14.24;26.50
49529;BME280;35423;37.320;-121.762;2023-03-03T10:10:24;100371.65;;;14.17;26.51
49529;BME280;35423;37.320;-121.762;2023-03-03T10:12:42;100360.88;;;14.11;26.53
49529;BME280;35423;37.320;-121.762;2023-03-03T10:15:13;100358.57;;;14.08;26.54
49529;BME280;35423;37.320;-121.762;2023-03-03T10:17:39;100355.74;;;14.29;26.54
49529;BME280;35423;37.320;-121.762;2023-03-03T10:22:26;100351.29;;;13.98;26.66
49529;BME280;35423;37.320;-121.762;2023-03-03T10:25:06;100349.69;;;13.94;26.73
49529;BME280;35423;37.320;-121.762;2023-03-03T10:27:33;100344.72;;;14.13;26.89
49529;BME280;35423;37.320;-121.762;2023-03-03T10:29:59;100340.91;;;13.63;27.03
49529;BME280;35423;37.320;-121.762;2023-03-03T10:32:29;100339.25;;;13.60;27.09
49529;BME280;35423;37.320;-121.762;2023-03-03T10:34:57;100334.30;;;13.79;27.17
49529;BME280;35423;37.320;-121.762;2023-03-03T10:37:17;100336.11;;;13.75;27.28
49529;BME280;35423;37.320;-121.762;2023-03-03T10:39:55;100337.65;;;13.97;27.33
49529;BME280;35423;37.320;-121.762;2023-03-03T10:42:15;100339.74;;;13.72;27.42
49529;BME280;35423;37.320;-121.762;2023-03-03T10:44:44;100340.39;;;13.69;27.51
49529;BME280;35423;37.320;-121.762;2023-03-03T10:49:34;100336.70;;;13.61;27.71
49529;BME280;35423;37.320;-121.762;2023-03-03T10:52:03;100328.50;;;13.58;27.78
49529;BME280;35423;37.320;-121.762;2023-03-03T10:54:29;100317.49;;;13.79;27.79
49529;BME280;35423;37.320;-121.762;2023-03-03T10:56:48;100315.93;;;13.54;27.79
49529;BME280;35423;37.320;-121.762;2023-03-03T10:59:20;100312.71;;;13.72;27.75
49529;BME280;35423;37.320;-121.762;2023-03-03T11:01:46;100316.98;;;13.60;27.82
49529;BME280;35423;37.320;-121.762;2023-03-03T11:04:20;100313.58;;;13.30;27.89
49529;BME280;35423;37.320;-121.762;2023-03-03T11:06:37;100309.69;;;13.48;27.96
49529;BME280;35423;37.320;-121.762;2023-03-03T11:08:57;100305.68;;;13.46;28.00
49529;BME280;35423;37.320;-121.762;2023-03-03T11:11:28;100297.85;;;13.40;28.17
49529;BME280;35423;37.320;-121.762;2023-03-03T11:13:49;100299.30;;;13.36;28.33
49529;BME280;35423;37.320;-121.762;2023-03-03T11:16:20;100298.59;;;13.33;28.44
49529;BME280;35423;37.320;-121.762;2023-03-03T11:18:51;100294.30;;;13.30;28.52
49529;BME280;35423;37.320;-121.762;2023-03-03T11:21:16;100294.77;;;13.06;28.63
49529;BME280;35423;37.320;-121.762;2023-03-03T11:23:49;100300.53;;;13.01;28.68
49529;BME280;35423;37.320;-121.762;2023-03-03T11:26:08;100294.24;;;13.18;28.76
49529;BME280;35423;37.320;-121.762;2023-03-03T11:28:41;100292.81;;;13.45;28.85
49529;BME280;35423;37.320;-121.762;2023-03-03T11:31:09;100294.78;;;13.12;28.96
49529;BME280;35423;37.320;-121.762;2023-03-03T11:33:24;100294.74;;;13.07;29.01
49529;BME280;35423;37.320;-121.762;2023-03-03T11:35:48;100294.78;;;12.83;29.12
49529;BME280;35423;37.320;-121.762;2023-03-03T11:40:48;100290.99;;;12.97;29.33
49529;BME280;35423;37.320;-121.762;2023-03-03T11:43:15;100287.49;;;13.22;29.32
49529;BME280;35423;37.320;-121.762;2023-03-03T11:45:41;100289.30;;;13.19;29.34
49529;BME280;35423;37.320;-121.762;2023-03-03T11:48:10;100287.96;;;13.14;29.37
49529;BME280;35423;37.320;-121.762;2023-03-03T11:50:37;100286.59;;;12.85;29.37
49529;BME280;35423;37.320;-121.762;2023-03-03T11:53:19;100283.63;;;13.07;29.41
49529;BME280;35423;37.320;-121.762;2023-03-03T11:55:40;100289.47;;;13.01;29.50
49529;BME280;35423;37.320;-121.762;2023-03-03T11:58:11;100289.76;;;12.72;29.56
49529;BME280;35423;37.320;-121.762;2023-03-03T12:00:34;100289.90;;;13.00;29.57
49529;BME280;35423;37.320;-121.762;2023-03-03T12:05:38;100291.30;;;12.67;29.76
49529;BME280;35423;37.320;-121.762;2023-03-03T12:07:58;100299.51;;;13.14;29.77
49529;BME280;35423;37.320;-121.762;2023-03-03T12:10:25;100302.96;;;12.86;29.78
49529;BME280;35423;37.320;-121.762;2023-03-03T12:12:58;100310.46;;;12.58;29.75
49529;BME280;35423;37.320;-121.762;2023-03-03T12:15:24;100313.38;;;12.82;29.76
49529;BME280;35423;37.320;-121.762;2023-03-03T12:17:56;100318.59;;;12.80;29.76
49529;BME280;35423;37.320;-121.762;2023-03-03T12:20:14;100317.72;;;12.79;29.77
49529;BME280;35423;37.320;-121.762;2023-03-03T12:22:39;100316.16;;;12.71;29.86
49529;BME280;35423;37.320;-121.762;2023-03-03T12:27:37;100316.51;;;12.61;30.00
49529;BME280;35423;37.320;-121.762;2023-03-03T12:30:10;100315.09;;;12.55;30.06
49529;BME280;35423;37.320;-121.762;2023-03-03T12:32:38;100310.60;;;12.74;30.11
49529;BME280;35423;37.320;-121.762;2023-03-03T12:34:57;100310.05;;;12.50;30.15
49529;BME280;35423;37.320;-121.762;2023-03-03T12:39:55;100310.95;;;12.41;30.15
49529;BME280;35423;37.320;-121.762;2023-03-03T12:42:22;100312.40;;;12.38;30.14
49529;BME280;35423;37.320;-121.762;2023-03-03T12:44:44;100313.43;;;12.55;30.17
49529;BME280;35423;37.320;-121.762;2023-03-03T12:47:12;100312.87;;;12.51;30.17
49529;BME280;35423;37.320;-121.762;2023-03-03T12:49:41;100313.37;;;12.21;30.23
49529;BME280;35423;37.320;-121.762;2023-03-03T12:52:22;100312.70;;;12.67;30.21
49529;BME280;35423;37.320;-121.762;2023-03-03T12:54:48;100310.93;;;12.38;30.25
49529;BME280;35423;37.320;-121.762;2023-03-03T12:57:19;100310.22;;;12.06;30.34